createdAt,value
2022-08-22T00:00:07.994Z,16.58
2022-08-22T00:01:11.315Z,16.66
2022-08-22T00:02:09.574Z,16.58
2022-08-22T00:03:40.038Z,16.59
2022-08-22T00:04:34.563Z,16.59
2022-08-22T00:05:28.797Z,16.58
2022-08-22T00:06:28.994Z,16.61
2022-08-22T00:07:29.912Z,16.61
2022-08-22T00:08:30.587Z,16.54
2022-08-22T00:09:31.866Z,16.5
2022-08-22T00:10:32.358Z,16.39
2022-08-22T00:11:35.379Z,16.47
2022-08-22T00:12:32.717Z,16.4
2022-08-22T00:13:33.638Z,16.36
2022-08-22T00:14:34.638Z,16.39
2022-08-22T00:15:49.096Z,16.39
2022-08-22T00:16:35.017Z,16.36
2022-08-22T00:17:35.241Z,16.32
2022-08-22T00:18:35.861Z,16.31
2022-08-22T00:19:36.780Z,16.28
2022-08-22T00:20:37.695Z,16.31
2022-08-22T00:21:39.590Z,16.32
2022-08-22T00:22:39.431Z,16.32
2022-08-22T00:23:40.099Z,16.29
2022-08-22T00:24:41.096Z,16.25
2022-08-22T00:25:41.717Z,16.29
2022-08-22T00:26:45.878Z,16.26
2022-08-22T00:27:50.972Z,16.22
2022-08-22T00:28:44.290Z,16.21
2022-08-22T00:29:45.650Z,16.12
2022-08-22T00:30:46.171Z,16.13
2022-08-22T00:31:46.091Z,16.24
2022-08-22T00:32:47.312Z,16.17
2022-08-22T00:33:47.210Z,16.06
2022-08-22T00:34:47.988Z,16.13
2022-08-22T00:35:51.195Z,16.08
2022-08-22T00:36:53.870Z,16.03
2022-08-22T00:37:49.907Z,16.09
2022-08-22T00:38:49.872Z,16.02
2022-08-22T00:39:50.988Z,16.06
2022-08-22T00:40:51.522Z,16.02
2022-08-22T00:41:52.714Z,16.09
2022-08-22T00:42:53.658Z,16
2022-08-22T00:43:53.551Z,16.02
2022-08-22T00:44:54.822Z,16.09
2022-08-22T00:45:56.435Z,16
2022-08-22T00:46:56.047Z,16.1
2022-08-22T00:47:57.005Z,16.08
2022-08-22T00:48:58.009Z,15.98
2022-08-22T00:49:57.948Z,16.05
2022-08-22T00:50:57.864Z,16.12
2022-08-22T00:51:59.085Z,16
2022-08-22T00:53:02.177Z,16.02
2022-08-22T00:53:59.390Z,15.98
2022-08-22T00:55:00.720Z,16
2022-08-22T00:56:01.053Z,16
2022-08-22T00:57:01.971Z,15.99
2022-08-22T00:58:02.830Z,16
2022-08-22T00:59:24.169Z,16.08
2022-08-22T01:00:03.439Z,16.08
2022-08-22T01:01:03.822Z,15.99
2022-08-22T01:02:04.384Z,15.98
2022-08-22T01:03:05.001Z,15.99
2022-08-22T01:04:05.908Z,16
2022-08-22T01:05:08.086Z,16.06
2022-08-22T01:06:06.980Z,16
2022-08-22T01:07:07.032Z,15.92
2022-08-22T01:08:07.251Z,16.03
2022-08-22T01:09:08.171Z,16.06
2022-08-22T01:10:09.082Z,15.94
2022-08-22T01:11:09.696Z,15.94
2022-08-22T01:12:10.315Z,16.02
2022-08-22T01:13:11.531Z,15.96
2022-08-22T01:14:11.722Z,15.99
2022-08-22T01:15:11.301Z,16.05
2022-08-22T01:16:12.511Z,15.98
2022-08-22T01:17:13.429Z,15.94
2022-08-22T01:18:14.325Z,16.02
2022-08-22T01:19:14.239Z,15.92
2022-08-22T01:20:14.868Z,15.91
2022-08-22T01:21:24.300Z,15.96
2022-08-22T01:22:16.606Z,15.94
2022-08-22T01:23:16.531Z,15.88
2022-08-22T01:24:17.969Z,15.94
2022-08-22T01:25:25.957Z,15.9
2022-08-22T01:26:20.032Z,15.96
2022-08-22T01:27:20.315Z,15.9
2022-08-22T01:28:23.803Z,15.96
2022-08-22T01:29:28.902Z,15.94
2022-08-22T01:30:24.107Z,15.92
2022-08-22T01:31:22.152Z,15.85
2022-08-22T01:32:23.076Z,15.88
2022-08-22T01:33:22.993Z,15.81
2022-08-22T01:34:23.305Z,15.81
2022-08-22T01:35:24.052Z,15.84
2022-08-22T01:36:24.965Z,15.81
2022-08-22T01:37:25.166Z,15.83
2022-08-22T01:38:25.795Z,15.84
2022-08-22T01:39:25.719Z,15.83
2022-08-22T01:40:27.702Z,15.83
2022-08-22T01:41:26.353Z,15.78
2022-08-22T01:42:26.851Z,15.84
2022-08-22T01:44:04.836Z,15.73
2022-08-22T01:44:27.331Z,15.84
2022-08-22T01:45:27.332Z,15.8
2022-08-22T01:46:27.699Z,15.76
2022-08-22T01:47:37.590Z,15.73
2022-08-22T01:48:29.910Z,15.78
2022-08-22T01:49:29.954Z,15.76
2022-08-22T01:50:29.862Z,15.78
2022-08-22T01:51:30.475Z,15.78
2022-08-22T01:52:31.094Z,15.76
2022-08-22T01:53:34.168Z,15.8
2022-08-22T01:54:32.787Z,15.75
2022-08-22T01:55:32.951Z,15.76
2022-08-22T01:56:33.860Z,15.78
2022-08-22T01:57:34.050Z,15.76
2022-08-22T01:58:33.975Z,15.84
2022-08-22T01:59:43.007Z,15.72
2022-08-22T02:00:41.718Z,15.73
2022-08-22T02:01:36.755Z,15.76
2022-08-22T02:02:36.670Z,15.8
2022-08-22T02:03:37.282Z,15.84
2022-08-22T02:04:37.623Z,15.73
2022-08-22T02:05:38.046Z,15.75
2022-08-22T02:06:37.938Z,15.76
2022-08-22T02:07:38.136Z,15.83
2022-08-22T02:08:38.756Z,15.81
2022-08-22T02:09:39.950Z,15.73
2022-08-22T02:10:40.645Z,15.73
2022-08-22T02:11:41.562Z,15.76
2022-08-22T02:12:41.187Z,15.78
2022-08-22T02:13:42.398Z,15.78
2022-08-22T02:14:42.593Z,15.81
2022-08-22T02:15:44.389Z,15.85
2022-08-22T02:16:43.726Z,15.81
2022-08-22T02:17:44.924Z,15.81
2022-08-22T02:18:44.926Z,15.8
2022-08-22T02:19:44.963Z,15.78
2022-08-22T02:20:45.870Z,15.81
2022-08-22T02:21:47.086Z,15.72
2022-08-22T02:22:50.418Z,15.78
2022-08-22T02:23:48.341Z,15.75
2022-08-22T02:24:48.739Z,15.69
2022-08-22T02:25:49.161Z,15.69
2022-08-22T02:26:49.799Z,15.75
2022-08-22T02:27:49.996Z,15.75
2022-08-22T02:29:02.721Z,15.69
2022-08-22T02:29:50.659Z,15.67
2022-08-22T02:30:51.281Z,15.69
2022-08-22T02:31:51.880Z,15.65
2022-08-22T02:32:52.517Z,15.7
2022-08-22T02:33:53.715Z,15.66
2022-08-22T02:34:54.751Z,15.67
2022-08-22T02:35:55.437Z,15.63
2022-08-22T02:36:58.502Z,15.69
2022-08-22T02:37:57.468Z,15.62
2022-08-22T02:38:58.768Z,15.6
2022-08-22T02:39:59.496Z,15.65
2022-08-22T02:41:00.319Z,15.59
2022-08-22T02:42:01.255Z,15.55
2022-08-22T02:43:02.150Z,15.59
2022-08-22T02:44:02.046Z,15.55
2022-08-22T02:45:03.114Z,15.6
2022-08-22T02:46:02.530Z,15.59
2022-08-22T02:47:03.450Z,15.59
2022-08-22T02:48:04.631Z,15.62
2022-08-22T02:49:04.266Z,15.57
2022-08-22T02:50:05.581Z,15.55
2022-08-22T02:51:05.822Z,15.57
2022-08-22T02:52:06.749Z,15.5
2022-08-22T02:53:08.817Z,15.5
2022-08-22T02:54:08.466Z,15.45
2022-08-22T02:55:08.941Z,15.39
2022-08-22T02:56:09.359Z,15.59
2022-08-22T02:57:14.950Z,15.45
2022-08-22T02:58:10.558Z,15.51
2022-08-22T02:59:11.050Z,15.43
2022-08-22T03:00:33.402Z,15.43
2022-08-22T03:01:11.973Z,15.39
2022-08-22T03:02:12.091Z,15.39
2022-08-22T03:03:12.280Z,15.45
2022-08-22T03:04:12.492Z,15.41
2022-08-22T03:05:12.898Z,15.47
2022-08-22T03:06:13.863Z,15.47
2022-08-22T03:07:13.659Z,15.41
2022-08-22T03:08:14.948Z,15.41
2022-08-22T03:09:15.503Z,15.35
2022-08-22T03:10:16.718Z,15.45
2022-08-22T03:11:16.634Z,15.44
2022-08-22T03:12:17.552Z,15.44
2022-08-22T03:13:17.775Z,15.35
2022-08-22T03:14:18.103Z,15.33
2022-08-22T03:15:19.001Z,15.3
2022-08-22T03:16:19.708Z,15.45
2022-08-22T03:17:20.350Z,15.3
2022-08-22T03:18:21.538Z,15.27
2022-08-22T03:19:24.377Z,15.35
2022-08-22T03:20:21.968Z,15.36
2022-08-22T03:21:23.159Z,15.22
2022-08-22T03:22:24.209Z,15.23
2022-08-22T03:23:24.543Z,15.29
2022-08-22T03:24:25.441Z,15.14
2022-08-22T03:25:25.342Z,15.19
2022-08-22T03:26:25.959Z,15.18
2022-08-22T03:27:39.109Z,15.17
2022-08-22T03:28:26.935Z,15.15
2022-08-22T03:29:27.427Z,15.23
2022-08-22T03:30:28.348Z,15.18
2022-08-22T03:31:28.243Z,15.19
2022-08-22T03:32:29.163Z,15.18
2022-08-22T03:33:30.074Z,15.17
2022-08-22T03:34:31.240Z,15.14
2022-08-22T03:35:30.973Z,15.12
2022-08-22T03:36:31.697Z,15.15
2022-08-22T03:37:31.590Z,15.25
2022-08-22T03:38:32.494Z,15.19
2022-08-22T03:39:32.108Z,15.12
2022-08-22T03:40:37.485Z,15.12
2022-08-22T03:41:34.129Z,15.18
2022-08-22T03:42:34.466Z,15.15
2022-08-22T03:43:35.087Z,15.12
2022-08-22T03:44:36.318Z,15.1
2022-08-22T03:45:37.207Z,15.12
2022-08-22T03:46:37.765Z,15.23
2022-08-22T03:47:38.705Z,15.1
2022-08-22T03:48:38.927Z,15.1
2022-08-22T03:49:39.846Z,15.05
2022-08-22T03:50:40.348Z,15.15
2022-08-22T03:51:40.606Z,15.11
2022-08-22T03:52:40.805Z,15.04
2022-08-22T03:53:41.018Z,15.05
2022-08-22T03:54:41.938Z,15.08
2022-08-22T03:55:43.553Z,15.1
2022-08-22T03:56:43.254Z,15.08
2022-08-22T03:57:43.576Z,15.07
2022-08-22T03:58:44.198Z,15.07
2022-08-22T03:59:48.814Z,15.02
2022-08-22T04:00:46.738Z,15.04
2022-08-22T04:01:47.200Z,15.11
2022-08-22T04:02:49.783Z,15.07
2022-08-22T04:03:47.720Z,15
2022-08-22T04:04:48.241Z,15.1
2022-08-22T04:05:53.517Z,15.05
2022-08-22T04:06:56.928Z,15
2022-08-22T04:07:51.395Z,15.04
2022-08-22T04:08:50.348Z,14.94
2022-08-22T04:09:57.077Z,15.05
2022-08-22T04:10:52.121Z,15.04
2022-08-22T04:11:53.530Z,15.02
2022-08-22T04:12:54.725Z,15.05
2022-08-22T04:13:54.658Z,15.08
2022-08-22T04:14:54.871Z,15.02
2022-08-22T04:15:55.483Z,14.97
2022-08-22T04:16:55.779Z,15.05
2022-08-22T04:17:58.219Z,15
2022-08-22T04:18:57.937Z,15
2022-08-22T04:19:57.566Z,14.9
2022-08-22T04:20:58.460Z,14.99
2022-08-22T04:21:59.378Z,15
2022-08-22T04:23:00.296Z,15.07
2022-08-22T04:24:01.212Z,14.97
2022-08-22T04:25:08.294Z,14.96
2022-08-22T04:26:12.989Z,14.9
2022-08-22T04:27:03.715Z,14.94
2022-08-22T04:28:04.089Z,14.97
2022-08-22T04:29:03.981Z,15.05
2022-08-22T04:30:05.194Z,15
2022-08-22T04:31:05.116Z,14.93
2022-08-22T04:32:05.758Z,14.94
2022-08-22T04:33:06.431Z,14.99
2022-08-22T04:34:07.422Z,14.94
2022-08-22T04:35:08.335Z,14.99
2022-08-22T04:36:09.356Z,14.94
2022-08-22T04:37:09.932Z,15
2022-08-22T04:38:10.553Z,14.99
2022-08-22T04:39:10.769Z,14.87
2022-08-22T04:40:11.662Z,14.9
2022-08-22T04:41:11.523Z,14.92
2022-08-22T04:42:36.391Z,14.92
2022-08-22T04:43:13.610Z,14.93
2022-08-22T04:44:14.109Z,14.87
2022-08-22T04:45:14.367Z,14.78
2022-08-22T04:46:15.021Z,14.78
2022-08-22T04:47:16.264Z,14.81
2022-08-22T04:48:16.761Z,14.73
2022-08-22T04:49:17.251Z,14.77
2022-08-22T04:50:17.472Z,14.74
2022-08-22T04:51:18.116Z,14.77
2022-08-22T04:52:18.755Z,14.82
2022-08-22T04:53:18.922Z,14.79
2022-08-22T04:54:19.820Z,14.66
2022-08-22T04:55:21.021Z,14.74
2022-08-22T04:56:21.646Z,14.71
2022-08-22T04:57:21.623Z,14.77
2022-08-22T04:58:22.120Z,14.68
2022-08-22T04:59:24.473Z,14.68
2022-08-22T05:00:23.413Z,14.7
2022-08-22T05:01:23.938Z,14.74
2022-08-22T05:02:24.819Z,14.81
2022-08-22T05:03:25.718Z,14.85
2022-08-22T05:04:25.673Z,14.71
2022-08-22T05:05:25.594Z,14.79
2022-08-22T05:06:26.891Z,14.66
2022-08-22T05:07:26.895Z,14.78
2022-08-22T05:08:27.273Z,14.71
2022-08-22T05:09:27.858Z,14.66
2022-08-22T05:10:27.481Z,14.78
2022-08-22T05:11:28.398Z,14.73
2022-08-22T05:12:32.197Z,14.68
2022-08-22T05:13:30.448Z,14.73
2022-08-22T05:14:30.934Z,14.66
2022-08-22T05:15:32.292Z,14.66
2022-08-22T05:16:32.214Z,14.7
2022-08-22T05:17:33.211Z,14.81
2022-08-22T05:18:35.660Z,14.78
2022-08-22T05:19:40.541Z,14.78
2022-08-22T05:20:35.463Z,14.79
2022-08-22T05:21:35.930Z,14.77
2022-08-22T05:22:35.833Z,14.9
2022-08-22T05:23:36.751Z,14.93
2022-08-22T05:24:36.948Z,14.92
2022-08-22T05:25:37.807Z,14.92
2022-08-22T05:26:37.461Z,14.89
2022-08-22T05:27:38.057Z,15.05
2022-08-22T05:28:38.678Z,15.02
2022-08-22T05:29:39.109Z,15.11
2022-08-22T05:30:40.312Z,15.07
2022-08-22T05:31:40.262Z,15.08
2022-08-22T05:32:41.194Z,15.07
2022-08-22T05:33:42.086Z,15.19
2022-08-22T05:34:42.735Z,15.19
2022-08-22T05:35:50.893Z,15.17
2022-08-22T05:36:44.004Z,15.29
2022-08-22T05:37:43.991Z,15.3
2022-08-22T05:38:44.965Z,15.29
2022-08-22T05:39:45.973Z,15.44
2022-08-22T05:40:46.851Z,15.52
2022-08-22T05:41:47.767Z,15.54
2022-08-22T05:42:47.666Z,15.52
2022-08-22T05:43:47.843Z,15.57
2022-08-22T05:44:49.046Z,15.59
2022-08-22T05:45:49.251Z,15.65
2022-08-22T05:46:49.905Z,15.63
2022-08-22T05:47:50.895Z,15.73
2022-08-22T05:48:50.938Z,15.67
2022-08-22T05:49:52.153Z,15.75
2022-08-22T05:50:56.486Z,15.76
2022-08-22T05:51:52.382Z,15.75
2022-08-22T05:52:52.873Z,15.76
2022-08-22T05:53:53.221Z,15.73
2022-08-22T05:54:53.842Z,15.73
2022-08-22T05:55:54.764Z,15.73
2022-08-22T05:56:55.384Z,15.84
2022-08-22T05:57:55.399Z,15.72
2022-08-22T05:58:55.495Z,15.76
2022-08-22T05:59:55.651Z,15.84
2022-08-22T06:00:56.622Z,15.76
2022-08-22T06:01:57.322Z,15.81
2022-08-22T06:02:57.502Z,15.81
2022-08-22T06:03:57.997Z,15.98
2022-08-22T06:04:58.209Z,15.94
2022-08-22T06:05:58.553Z,16.06
2022-08-22T06:06:59.906Z,16.21
2022-08-22T06:08:01.701Z,16.29
2022-08-22T06:09:01.318Z,16.36
2022-08-22T06:10:02.516Z,16.36
2022-08-22T06:11:02.712Z,16.43
2022-08-22T06:12:04.568Z,16.58
2022-08-22T06:13:03.999Z,16.62
2022-08-22T06:14:04.894Z,16.62
2022-08-22T06:15:12.636Z,16.72
2022-08-22T06:16:05.521Z,16.89
2022-08-22T06:17:06.350Z,16.82
2022-08-22T06:18:07.346Z,16.97
2022-08-22T06:19:20.380Z,17.01
2022-08-22T06:20:08.602Z,17.02
2022-08-22T06:21:09.224Z,17.22
2022-08-22T06:22:18.806Z,17.17
2022-08-22T06:23:10.817Z,17.28
2022-08-22T06:24:10.769Z,17.42
2022-08-22T06:25:11.904Z,17.38
2022-08-22T06:26:26.584Z,17.47
2022-08-22T06:27:12.504Z,17.39
2022-08-22T06:28:13.020Z,17.44
2022-08-22T06:29:13.644Z,17.39
2022-08-22T06:30:14.563Z,17.41
2022-08-22T06:31:15.210Z,17.46
2022-08-22T06:32:16.409Z,17.54
2022-08-22T06:33:18.365Z,17.69
2022-08-22T06:34:17.659Z,17.66
2022-08-22T06:35:17.874Z,17.73
2022-08-22T06:36:21.761Z,17.87
2022-08-22T06:37:18.678Z,17.9
2022-08-22T06:38:19.218Z,17.98
2022-08-22T06:39:19.832Z,18.03
2022-08-22T06:40:20.326Z,18.06
2022-08-22T06:41:21.118Z,18.16
2022-08-22T06:42:22.586Z,18.18
2022-08-22T06:43:21.503Z,18.23
2022-08-22T06:44:22.715Z,18.18
2022-08-22T06:45:23.701Z,18.28
2022-08-22T06:46:24.603Z,18.39
2022-08-22T06:47:25.627Z,18.41
2022-08-22T06:48:26.558Z,18.6
2022-08-22T06:49:26.770Z,18.85
2022-08-22T06:50:27.971Z,19.56
2022-08-22T06:51:29.571Z,19.82
2022-08-22T06:52:29.790Z,20.3
2022-08-22T06:53:30.032Z,20.74
2022-08-22T06:54:34.662Z,21.19
2022-08-22T06:55:31.892Z,21.35
2022-08-22T06:56:31.798Z,21.41
2022-08-22T06:57:32.151Z,21.41
2022-08-22T06:58:36.915Z,21.38
2022-08-22T06:59:48.468Z,21.33
2022-08-22T07:00:34.309Z,21.37
2022-08-22T07:01:35.392Z,21.4
2022-08-22T07:02:35.544Z,21.45
2022-08-22T07:03:36.772Z,21.58
2022-08-22T07:04:36.971Z,21.68
2022-08-22T07:05:38.195Z,21.68
2022-08-22T07:06:38.130Z,21.8
2022-08-22T07:07:39.042Z,21.83
2022-08-22T07:08:44.245Z,21.92
2022-08-22T07:09:40.182Z,22.01
2022-08-22T07:10:41.106Z,22.12
2022-08-22T07:11:41.317Z,22.14
2022-08-22T07:12:41.539Z,22.26
2022-08-22T07:13:42.469Z,22.31
2022-08-22T07:14:42.677Z,22.37
2022-08-22T07:15:43.204Z,22.38
2022-08-22T07:16:43.600Z,22.38
2022-08-22T07:17:46.670Z,22.55
2022-08-22T07:18:45.115Z,22.58
2022-08-22T07:19:45.054Z,22.78
2022-08-22T07:20:45.562Z,22.78
2022-08-22T07:21:45.682Z,22.78
2022-08-22T07:22:46.320Z,22.77
2022-08-22T07:23:46.784Z,22.8
2022-08-22T07:24:46.470Z,22.63
2022-08-22T07:25:47.377Z,22.33
2022-08-22T07:26:48.582Z,22.01
2022-08-22T07:27:54.831Z,21.89
2022-08-22T07:29:11.955Z,21.89
2022-08-22T07:30:10.741Z,21.63
2022-08-22T07:31:07.007Z,21.6
2022-08-22T07:32:06.488Z,21.35
2022-08-22T07:33:32.105Z,20.96
2022-08-22T07:34:08.335Z,20.98
2022-08-22T07:35:08.561Z,20.88
2022-08-22T07:36:08.487Z,20.77
2022-08-22T07:37:09.114Z,20.59
2022-08-22T07:38:10.426Z,20.52
2022-08-22T07:39:11.354Z,20.53
2022-08-22T07:40:10.575Z,20.3
2022-08-22T07:41:11.026Z,20.11
2022-08-22T07:42:11.970Z,19.93
2022-08-22T07:43:12.895Z,19.74
2022-08-22T07:44:12.820Z,19.66
2022-08-22T07:45:13.911Z,19.49
2022-08-22T07:46:15.557Z,19.39
2022-08-22T07:47:18.847Z,19.29
2022-08-22T07:48:26.544Z,19.22
2022-08-22T07:49:36.476Z,19.37
2022-08-22T07:50:36.879Z,19.29
2022-08-22T07:51:37.225Z,19.29
2022-08-22T07:52:38.577Z,19.32
2022-08-22T07:53:39.220Z,19.37
2022-08-22T07:54:40.282Z,19.37
2022-08-22T07:55:55.720Z,19.44
2022-08-22T07:56:41.649Z,19.42
2022-08-22T07:57:41.577Z,19.45
2022-08-22T07:58:42.779Z,19.42
2022-08-22T07:59:42.801Z,19.52
2022-08-22T08:00:43.746Z,19.52
2022-08-22T08:01:44.950Z,19.64
2022-08-22T08:02:44.736Z,19.77
2022-08-22T08:03:47.121Z,19.75
2022-08-22T08:04:46.471Z,19.84
2022-08-22T08:05:46.398Z,19.97
2022-08-22T08:06:46.758Z,20.11
2022-08-22T08:07:46.835Z,20.12
2022-08-22T08:08:47.991Z,20.27
2022-08-22T08:09:49.003Z,20.39
2022-08-22T08:10:49.660Z,20.36
2022-08-22T08:11:50.597Z,20.56
2022-08-22T08:13:07.503Z,20.59
2022-08-22T08:13:51.731Z,20.58
2022-08-22T08:14:52.647Z,20.52
2022-08-22T08:15:53.572Z,20.55
2022-08-22T08:16:53.793Z,20.63
2022-08-22T08:17:54.290Z,20.64
2022-08-22T08:18:54.538Z,20.74
2022-08-22T08:19:56.237Z,20.75
2022-08-22T08:20:55.859Z,20.86
2022-08-22T08:21:55.776Z,20.92
2022-08-22T08:22:56.709Z,20.98
2022-08-22T08:23:56.935Z,21.01
2022-08-22T08:24:57.456Z,21.11
2022-08-22T08:25:59.803Z,21.15
2022-08-22T08:26:58.461Z,21.3
2022-08-22T08:27:59.562Z,21.38
2022-08-22T08:29:00.165Z,21.45
2022-08-22T08:30:01.195Z,21.51
2022-08-22T08:31:01.990Z,21.59
2022-08-22T08:32:02.916Z,21.59
2022-08-22T08:33:31.080Z,21.6
2022-08-22T08:34:04.050Z,21.68
2022-08-22T08:35:04.672Z,21.8
2022-08-22T08:36:08.792Z,22.16
2022-08-22T08:37:05.993Z,22.49
2022-08-22T08:38:07.076Z,22.68
2022-08-22T08:39:07.676Z,22.68
2022-08-22T08:40:08.494Z,22.56
2022-08-22T08:41:09.176Z,22.71
2022-08-22T08:42:09.293Z,22.77
2022-08-22T08:43:11.472Z,22.81
2022-08-22T08:44:10.406Z,22.76
2022-08-22T08:45:10.333Z,22.74
2022-08-22T08:46:11.901Z,22.78
2022-08-22T08:47:13.038Z,22.78
2022-08-22T08:48:11.705Z,22.83
2022-08-22T08:49:12.639Z,22.84
2022-08-22T08:50:15.225Z,22.93
2022-08-22T08:51:15.927Z,23.08
2022-08-22T08:52:14.640Z,23.21
2022-08-22T08:53:17.857Z,23.91
2022-08-22T08:54:15.975Z,24.51
2022-08-22T08:55:30.423Z,25.16
2022-08-22T08:56:20.111Z,25.58
2022-08-22T08:57:17.569Z,26.03
2022-08-22T08:58:18.444Z,26.56
2022-08-22T08:59:17.729Z,26.85
2022-08-22T09:00:19.050Z,27.01
2022-08-22T09:04:25.471Z,28.15
2022-08-22T09:05:26.157Z,28.2
2022-08-22T09:06:25.823Z,28.46
2022-08-22T09:07:25.959Z,28.47
2022-08-22T09:08:27.963Z,28.4
2022-08-22T09:09:27.130Z,28.35
2022-08-22T09:10:33.640Z,28.56
2022-08-22T09:11:34.746Z,28.87
2022-08-22T09:12:29.722Z,29.12
2022-08-22T09:13:40.649Z,29.15
2022-08-22T09:14:34.651Z,29.18
2022-08-22T09:15:38.875Z,29.22
2022-08-22T09:16:31.861Z,29.25
2022-08-22T09:17:34.093Z,29.35
2022-08-22T09:18:35.010Z,29.58
2022-08-22T09:19:33.952Z,29.68
2022-08-22T09:20:34.586Z,29.4
2022-08-22T09:21:38.165Z,29.35
2022-08-22T09:25:45.793Z,30.08
2022-08-22T09:26:41.072Z,30.11
2022-08-22T09:27:41.630Z,30.06
2022-08-22T09:28:44.791Z,29.98
2022-08-22T09:30:05.115Z,30.02
2022-08-22T09:30:44.592Z,29.98
2022-08-22T09:32:00.710Z,30.11
2022-08-22T09:32:45.946Z,30.2
2022-08-22T09:33:44.334Z,30.26
2022-08-22T09:34:48.181Z,30.55
2022-08-22T09:35:45.708Z,30.77
2022-08-22T09:36:45.982Z,31.02
2022-08-22T09:37:46.198Z,31.25
2022-08-22T09:38:53.720Z,31.41
2022-08-22T09:39:49.807Z,31.36
2022-08-22T09:40:49.731Z,30.95
2022-08-22T09:41:52.245Z,30.52
2022-08-22T09:42:52.335Z,30.05
2022-08-22T09:43:54.141Z,29.9
2022-08-22T09:44:51.009Z,29.96
2022-08-22T09:45:52.727Z,30.17
2022-08-22T09:46:51.377Z,30.31
2022-08-22T09:47:58.120Z,30.44
2022-08-22T09:48:53.140Z,30.56
2022-08-22T09:49:55.791Z,30.52
2022-08-22T09:51:29.062Z,30.38
2022-08-22T09:51:57.755Z,30.08
2022-08-22T09:52:56.807Z,30.08
2022-08-22T09:53:58.897Z,30.08
2022-08-22T09:54:58.329Z,30.17
2022-08-22T09:55:58.606Z,30.21
2022-08-22T09:56:59.827Z,30.05
2022-08-22T09:58:01.880Z,29.86
2022-08-22T09:59:03.056Z,29.9
2022-08-22T10:00:03.790Z,29.52
2022-08-22T10:01:02.539Z,29.2
2022-08-22T10:02:06.333Z,28.92
2022-08-22T10:03:07.192Z,28.57
2022-08-22T10:04:06.476Z,28.35
2022-08-22T10:05:06.773Z,28.09
2022-08-22T10:06:09.314Z,27.85
2022-08-22T10:07:12.315Z,27.75
2022-08-22T10:08:11.596Z,27.98
2022-08-22T10:09:09.490Z,28.09
2022-08-22T10:10:09.918Z,27.82
2022-08-22T10:11:12.918Z,27.73
2022-08-22T10:12:13.488Z,27.44
2022-08-22T10:13:16.846Z,27.75
2022-08-22T10:14:11.073Z,27.97
2022-08-22T10:15:13.170Z,28.12
2022-08-22T10:16:15.751Z,28.46
2022-08-22T10:17:22.205Z,28.55
2022-08-22T10:18:16.148Z,28.75
2022-08-22T10:19:14.515Z,28.89
2022-08-22T10:20:16.226Z,29
2022-08-22T10:21:16.141Z,29.02
2022-08-22T10:22:17.709Z,29.02
2022-08-22T10:23:21.300Z,29.07
2022-08-22T10:24:31.447Z,29.02
2022-08-22T10:25:19.108Z,28.67
2022-08-22T10:26:29.002Z,28.4
2022-08-22T10:27:23.242Z,28.19
2022-08-22T10:28:23.138Z,28.27
2022-08-22T10:29:22.933Z,28.08
2022-08-22T10:30:24.119Z,28.04
2022-08-22T10:31:24.115Z,28.31
2022-08-22T10:32:32.963Z,28.6
2022-08-22T10:33:29.799Z,28.89
2022-08-22T10:34:31.439Z,29.15
2022-08-22T10:35:26.272Z,29.3
2022-08-22T10:36:27.036Z,29.16
2022-08-22T10:37:29.930Z,28.96
2022-08-22T10:38:31.249Z,28.68
2022-08-22T10:39:32.748Z,28.55
2022-08-22T10:40:29.744Z,28.53
2022-08-22T10:41:31.206Z,28.6
2022-08-22T10:42:36.436Z,28.74
2022-08-22T10:43:34.805Z,28.64
2022-08-22T10:44:31.618Z,28.65
2022-08-22T10:45:42.212Z,28.6
2022-08-22T10:46:34.126Z,28.55
2022-08-22T10:47:33.434Z,28.6
2022-08-22T10:48:33.080Z,28.7
2022-08-22T10:49:35.105Z,28.78
2022-08-22T10:50:36.885Z,29.06
2022-08-22T10:51:36.915Z,29.27
2022-08-22T10:52:36.592Z,29.07
2022-08-22T10:53:36.831Z,28.89
2022-08-22T10:54:40.082Z,28.89
2022-08-22T10:55:38.890Z,28.78
2022-08-22T10:56:41.111Z,28.8
2022-08-22T10:57:40.326Z,28.83
2022-08-22T10:58:42.273Z,28.83
2022-08-22T10:59:41.356Z,28.94
2022-08-22T11:00:49.708Z,28.9
2022-08-22T11:01:48.601Z,29.16
2022-08-22T11:02:47.908Z,29.16
2022-08-22T11:03:45.812Z,29.18
2022-08-22T11:04:46.082Z,29
2022-08-22T11:05:51.345Z,28.67
2022-08-22T11:06:50.449Z,28.35
2022-08-22T11:07:54.118Z,28.41
2022-08-22T11:08:49.583Z,28.31
2022-08-22T11:09:51.191Z,28.31
2022-08-22T11:10:52.331Z,28.43
2022-08-22T11:11:50.383Z,28.56
2022-08-22T11:12:50.663Z,28.74
2022-08-22T11:13:55.337Z,28.97
2022-08-22T11:14:52.644Z,29.21
2022-08-22T11:15:56.812Z,29.34
2022-08-22T11:17:01.273Z,29.52
2022-08-22T11:18:19.445Z,29.71
2022-08-22T11:19:21.668Z,29.83
2022-08-22T11:20:21.919Z,29.62
2022-08-22T11:21:22.219Z,29.4
2022-08-22T11:22:21.540Z,28.96
2022-08-22T11:23:23.251Z,28.41
2022-08-22T11:24:57.553Z,28.04
2022-08-22T11:25:42.231Z,28.13
2022-08-22T11:26:48.196Z,27.91
2022-08-22T11:27:40.079Z,27.88
2022-08-22T11:28:29.872Z,27.97
2022-08-22T11:29:30.544Z,27.78
2022-08-22T11:30:44.276Z,27.6
2022-08-22T11:31:36.878Z,27.63
2022-08-22T11:32:32.408Z,27.43
2022-08-22T11:33:52.970Z,27.11
2022-08-22T11:34:33.060Z,26.89
2022-08-22T11:35:35.509Z,26.63
2022-08-22T11:36:37.073Z,26.46
2022-08-22T11:37:54.799Z,26.31
2022-08-22T11:38:49.133Z,26.44
2022-08-22T11:39:50.436Z,26.56
2022-08-22T11:40:49.883Z,26.66
2022-08-22T11:41:58.003Z,26.91
2022-08-22T11:42:53.657Z,27.04
2022-08-22T11:43:53.045Z,27.13
2022-08-22T11:44:56.393Z,27.3
2022-08-22T11:45:53.038Z,27.4
2022-08-22T11:46:55.214Z,27.68
2022-08-22T11:47:54.114Z,27.78
2022-08-22T11:48:55.510Z,27.93
2022-08-22T11:49:57.292Z,28.03
2022-08-22T11:50:56.812Z,28.06
2022-08-22T11:51:57.178Z,28.01
2022-08-22T11:52:57.872Z,28.12
2022-08-22T11:53:58.650Z,28.18
2022-08-22T11:54:59.156Z,28.27
2022-08-22T11:55:59.981Z,28.4
2022-08-22T11:57:00.533Z,28.37
2022-08-22T11:58:01.289Z,28.4
2022-08-22T11:59:02.883Z,28.5
2022-08-22T12:00:03.773Z,28.62
2022-08-22T12:01:04.269Z,28.41
2022-08-22T12:02:09.001Z,28.4
2022-08-22T12:03:06.475Z,28.38
2022-08-22T12:04:10.177Z,28.5
2022-08-22T12:05:05.975Z,28.52
2022-08-22T12:06:08.213Z,28.64
2022-08-22T12:07:06.673Z,28.77
2022-08-22T12:08:08.529Z,28.83
2022-08-22T12:09:08.941Z,28.65
2022-08-22T12:10:15.431Z,28.59
2022-08-22T12:11:10.206Z,28.5
2022-08-22T12:12:10.685Z,28.16
2022-08-22T12:13:11.304Z,27.75
2022-08-22T12:14:13.582Z,27.29
2022-08-22T12:15:15.916Z,26.98
2022-08-22T12:16:13.369Z,26.96
2022-08-22T12:18:01.749Z,26.93
2022-08-22T12:18:27.190Z,27.01
2022-08-22T12:19:33.470Z,27.3
2022-08-22T12:20:26.438Z,27.48
2022-08-22T12:21:28.096Z,27.68
2022-08-22T12:22:29.137Z,27.9
2022-08-22T12:23:50.890Z,28.12
2022-08-22T12:24:28.360Z,28.34
2022-08-22T12:25:28.859Z,28.47
2022-08-22T12:26:30.053Z,28.6
2022-08-22T12:27:35.262Z,28.68
2022-08-22T12:28:31.119Z,28.7
2022-08-22T12:29:45.583Z,28.8
2022-08-22T12:30:31.799Z,28.82
2022-08-22T12:31:32.469Z,28.64
2022-08-22T12:32:34.443Z,28.53
2022-08-22T12:33:33.671Z,28.4
2022-08-22T12:34:33.254Z,28.37
2022-08-22T12:35:36.402Z,28.22
2022-08-22T12:36:35.433Z,28.06
2022-08-22T12:37:53.324Z,27.86
2022-08-22T12:38:38.779Z,27.81
2022-08-22T12:39:40.811Z,27.71
2022-08-22T12:40:37.138Z,27.68
2022-08-22T12:41:48.254Z,27.63
2022-08-22T12:42:42.037Z,27.78
2022-08-22T12:43:43.040Z,27.83
2022-08-22T12:44:39.635Z,27.91
2022-08-22T12:45:40.975Z,27.93
2022-08-22T12:46:47.989Z,27.91
2022-08-22T12:47:42.815Z,27.88
2022-08-22T12:48:43.187Z,27.76
2022-08-22T12:49:52.271Z,27.9
2022-08-22T12:50:43.459Z,27.95
2022-08-22T12:51:47.242Z,28.16
2022-08-22T12:52:44.916Z,28.09
2022-08-22T12:53:44.439Z,27.85
2022-08-22T12:54:46.367Z,27.68
2022-08-22T12:55:45.876Z,27.63
2022-08-22T12:56:53.161Z,27.6
2022-08-22T12:58:01.552Z,27.47
2022-08-22T12:58:51.874Z,27.2
2022-08-22T12:59:49.463Z,27.15
2022-08-22T13:00:53.071Z,27
2022-08-22T13:01:50.607Z,26.86
2022-08-22T13:02:51.636Z,26.78
2022-08-22T13:03:50.933Z,26.68
2022-08-22T13:04:51.607Z,26.66
2022-08-22T13:06:08.287Z,26.52
2022-08-22T13:06:56.719Z,26.46
2022-08-22T13:08:05.131Z,26.44
2022-08-22T13:08:56.108Z,26.3
2022-08-22T13:09:59.295Z,26.34
2022-08-22T13:10:57.325Z,26.36
2022-08-22T13:11:58.672Z,26.22